CST,Max TemperatureF,Mean TemperatureF,Min TemperatureF,Max Dew PointF,MeanDew PointF,Min DewpointF,Max Humidity, Mean Humidity, Min Humidity, Max Sea Level PressureIn, Mean Sea Level PressureIn, Min Sea Level PressureIn, Max VisibilityMiles, Mean VisibilityMiles, Min VisibilityMiles, Max Wind SpeedMPH, Mean Wind SpeedMPH, Max Gust SpeedMPH,PrecipitationIn, CloudCover, Events, WindDirDegrees
2012-11-1,37,29,21,34,22,18,93,72,52,30.07,30.03,29.95,10,10,10,16,10,22,0.00,3,,351
2012-11-2,33,27,21,25,21,19,93,76,60,30.15,30.12,30.08,10,10,10,8,2,,0.00,7,,79
2012-11-3,35,32,28,27,24,21,86,74,60,30.21,30.17,30.14,10,10,10,7,2,,0.00,8,,122
2012-11-4,35,30,26,27,26,25,93,77,70,30.20,30.18,30.14,10,10,10,8,3,,0.00,8,,78
2012-11-5,33,32,30,32,28,25,100,84,70,30.19,30.07,29.80,10,8,1,10,6,,0.15,8,Rain-Snow,128
2012-11-6,35,32,30,34,31,30,100,87,81,29.99,29.83,29.71,10,9,2,23,13,32,0.01,8,Rain-Snow,308
2012-11-7,44,38,32,34,31,28,100,78,57,30.07,30.00,29.91,10,10,5,16,5,25,0.00,5,,194
2012-11-8,46,38,30,36,31,27,93,79,66,30.06,29.94,29.84,10,10,10,18,12,24,0.00,4,,18
2012-11-9,37,34,32,30,29,27,87,79,70,30.08,30.02,29.90,10,10,10,16,11,29,0.00,8,,65
2012-11-10,42,38,33,43,35,30,100,96,81,29.90,29.61,29.37,10,3,0,20,12,25,0.21,8,Fog-Rain-Snow-Thunderstorm,94
2012-11-11,37,26,15,37,18,10,100,87,73,29.81,29.71,29.47,10,8,2,20,14,25,0.00,8,Rain-Snow,262
2012-11-12,17,14,12,14,11,9,92,82,73,30.20,29.99,29.80,10,8,2,17,11,24,0.00,7,Snow,274
2012-11-13,33,20,8,25,18,7,93,83,65,30.23,30.20,30.18,10,10,10,7,2,,0.00,3,,185
2012-11-14,44,34,24,30,27,21,100,82,53,30.20,30.14,30.06,10,10,4,9,2,,0.00,2,,185
2012-11-15,35,25,15,28,18,9,100,72,38,30.46,30.27,30.05,10,10,7,15,5,22,0.00,1,,301
2012-11-16,37,24,10,23,13,9,92,64,36,30.46,30.33,30.16,10,10,10,15,5,18,0.00,0,,145
2012-11-17,48,39,30,36,30,23,87,71,58,30.15,30.10,30.05,10,10,10,17,10,22,0.00,0,,159
2012-11-18,50,41,32,34,32,28,87,67,54,30.05,30.00,29.97,10,10,10,15,10,22,0.00,1,,150
2012-11-19,51,38,24,37,33,25,100,76,58,30.12,30.01,29.95,10,9,2,13,8,,0.00,0,,231
2012-11-20,48,32,15,36,24,14,100,80,46,30.15,30.06,29.92,10,5,0,12,3,,0.00,3,Fog,160
2012-11-21,60,44,28,37,32,25,93,72,39,29.92,29.78,29.55,10,10,7,12,4,,0.00,0,,149
2012-11-22,41,26,12,34,23,9,100,86,70,30.05,29.76,29.53,10,6,1,26,11,38,0.00,5,Snow,289
2012-11-23,15,9,3,9,6,0,92,81,73,30.37,30.29,30.07,10,9,4,23,17,33,0.00,7,Snow,308
2012-11-24,21,8,-4,18,6,-8,92,84,73,30.32,30.00,29.75,10,10,7,16,3,16,0.00,5,Snow,154
2012-11-25,24,12,1,21,13,-2,93,82,67,30.20,29.96,29.80,10,9,3,18,13,26,0.00,6,Snow,301
2012-11-26,15,6,-2,9,1,-8,92,77,67,30.38,30.29,30.20,10,10,10,12,6,18,0.00,1,,264
2012-11-27,26,19,12,19,15,7,86,79,68,30.23,30.12,30.06,10,10,10,16,7,20,0.00,5,,273
2012-11-28,30,24,17,23,19,14,93,82,69,30.25,30.14,30.02,10,10,7,13,5,18,0.00,4,,215
2012-11-29,24,20,17,21,19,16,100,90,80,30.13,30.09,30.04,10,7,3,14,7,21,0.00,6,,72
2012-11-30,28,24,21,28,23,19,100,93,86,30.15,30.07,29.93,10,4,1,16,9,22,0.00,8,,124